Abbey, United Kingdom
Current Conditions -  °F | °C
As of 1:50 PM on Thursday 27 Nov 2014 (Local Time) from EGUB Reporting Station
Scattered Clouds Scattered Clouds  
Wind Chill: 46°   Ceiling: Unl
Heat Index: 48°   Visibility: 6mi
Dew Point: 45°   Wind: 6mph
Humidity: 87%   Direction: 210°SSW
Pressure: 29.59"   Gusts: NA
Location:  51.67°N, 1.3°W
Report Text: EGUB 271350Z 21005KT 9999 FEW012 SCT080 09/07 Q1002 BLU NOSIG
Loading
Personal Weather Stations






























Interactive Weather Map New forecast layout! Learn more

10-Day Weather Forecast

Advertisements
Track Severe Weather on mobile